sensor_id;sensor_type;location;lat;lon;timestamp;pressure;altitude;pressure_sealevel;temperature;humidity
77723;BME280;67811;42.656;23.394;2023-03-02T00:01:14;95415.69;;;4.56;81.75
77723;BME280;67811;42.656;23.394;2023-03-02T00:03:45;95415.13;;;4.53;82.26
77723;BME280;67811;42.656;23.394;2023-03-02T00:06:15;95413.06;;;4.56;82.17
77723;BME280;67811;42.656;23.394;2023-03-02T00:08:46;95409.88;;;4.53;82.04
77723;BME280;67811;42.656;23.394;2023-03-02T00:11:17;95411.84;;;4.51;83.05
77723;BME280;67811;42.656;23.394;2023-03-02T00:13:49;95411.69;;;4.42;83.37
77723;BME280;67811;42.656;23.394;2023-03-02T00:16:19;95406.84;;;4.38;83.54
77723;BME280;67811;42.656;23.394;2023-03-02T00:18:50;95405.75;;;4.31;84.08
77723;BME280;67811;42.656;23.394;2023-03-02T00:21:20;95406.31;;;4.34;84.18
77723;BME280;67811;42.656;23.394;2023-03-02T00:23:51;95403.56;;;4.36;84.60
77723;BME280;67811;42.656;23.394;2023-03-02T00:26:22;95393.63;;;4.30;83.97
77723;BME280;67811;42.656;23.394;2023-03-02T00:28:54;95393.19;;;4.25;84.33
77723;BME280;67811;42.656;23.394;2023-03-02T00:31:25;95399.69;;;4.20;84.85
77723;BME280;67811;42.656;23.394;2023-03-02T00:33:55;95390.84;;;4.21;84.88
77723;BME280;67811;42.656;23.394;2023-03-02T00:36:26;95388.09;;;4.23;84.76
77723;BME280;67811;42.656;23.394;2023-03-02T00:38:56;95383.69;;;4.14;85.49
77723;BME280;67811;42.656;23.394;2023-03-02T00:41:27;95370.00;;;4.10;85.55
77723;BME280;67811;42.656;23.394;2023-03-02T00:43:59;95377.34;;;4.07;85.52
77723;BME280;67811;42.656;23.394;2023-03-02T00:46:29;95364.63;;;4.02;85.95
77723;BME280;67811;42.656;23.394;2023-03-02T00:49:00;95360.91;;;4.05;85.95
77723;BME280;67811;42.656;23.394;2023-03-02T00:51:30;95358.56;;;3.92;85.85
77723;BME280;67811;42.656;23.394;2023-03-02T00:54:01;95370.00;;;3.91;86.18
77723;BME280;67811;42.656;23.394;2023-03-02T00:56:32;95356.47;;;3.86;86.40
77723;BME280;67811;42.656;23.394;2023-03-02T00:59:08;95354.94;;;3.83;86.54
77723;BME280;67811;42.656;23.394;2023-03-02T01:01:39;95355.91;;;3.82;86.44
77723;BME280;67811;42.656;23.394;2023-03-02T01:04:10;95349.84;;;3.82;86.36
77723;BME280;67811;42.656;23.394;2023-03-02T01:06:40;95350.25;;;3.77;86.37
77723;BME280;67811;42.656;23.394;2023-03-02T01:09:11;95349.72;;;3.74;86.55
77723;BME280;67811;42.656;23.394;2023-03-02T01:11:41;95338.94;;;3.77;86.13
77723;BME280;67811;42.656;23.394;2023-03-02T01:14:13;95352.06;;;3.77;86.21
77723;BME280;67811;42.656;23.394;2023-03-02T01:16:44;95336.06;;;3.80;86.12
77723;BME280;67811;42.656;23.394;2023-03-02T01:19:15;95344.34;;;3.75;86.48
77723;BME280;67811;42.656;23.394;2023-03-02T01:21:46;95335.66;;;3.75;86.49
77723;BME280;67811;42.656;23.394;2023-03-02T01:24:16;95341.97;;;3.72;86.54
77723;BME280;67811;42.656;23.394;2023-03-02T01:26:47;95338.94;;;3.77;86.80
77723;BME280;67811;42.656;23.394;2023-03-02T01:29:19;95342.13;;;3.70;86.86
77723;BME280;67811;42.656;23.394;2023-03-02T01:31:49;95339.25;;;3.74;86.53
77723;BME280;67811;42.656;23.394;2023-03-02T01:34:20;95340.06;;;3.74;86.71
77723;BME280;67811;42.656;23.394;2023-03-02T01:36:50;95339.63;;;3.79;86.66
77723;BME280;67811;42.656;23.394;2023-03-02T01:39:21;95333.97;;;3.83;86.14
77723;BME280;67811;42.656;23.394;2023-03-02T01:41:52;95328.06;;;3.81;86.22
77723;BME280;67811;42.656;23.394;2023-03-02T01:44:36;95336.75;;;3.82;86.54
77723;BME280;67811;42.656;23.394;2023-03-02T01:47:13;95334.69;;;3.85;86.38
77723;BME280;67811;42.656;23.394;2023-03-02T01:49:49;95324.06;;;3.87;86.07
77723;BME280;67811;42.656;23.394;2023-03-02T01:52:21;95326.94;;;3.84;86.13
77723;BME280;67811;42.656;23.394;2023-03-02T01:54:52;95324.06;;;3.87;86.19
77723;BME280;67811;42.656;23.394;2023-03-02T01:57:27;95323.09;;;3.88;86.29
77723;BME280;67811;42.656;23.394;2023-03-02T02:00:04;95330.94;;;3.88;86.37
77723;BME280;67811;42.656;23.394;2023-03-02T02:02:36;95327.66;;;3.86;85.68
77723;BME280;67811;42.656;23.394;2023-03-02T02:05:08;95321.69;;;3.84;85.78
77723;BME280;67811;42.656;23.394;2023-03-02T02:07:39;95325.72;;;3.88;85.91
77723;BME280;67811;42.656;23.394;2023-03-02T02:10:11;95323.91;;;3.88;85.50
77723;BME280;67811;42.656;23.394;2023-03-02T02:12:41;95321.13;;;3.90;86.05
77723;BME280;67811;42.656;23.394;2023-03-02T02:15:13;95329.44;;;3.85;85.84
77723;BME280;67811;42.656;23.394;2023-03-02T02:17:44;95324.88;;;3.78;86.53
77723;BME280;67811;42.656;23.394;2023-03-02T02:20:21;95331.91;;;3.77;86.56
77723;BME280;67811;42.656;23.394;2023-03-02T02:23:03;95326.53;;;3.69;86.83
77723;BME280;67811;42.656;23.394;2023-03-02T02:25:44;95334.81;;;3.74;86.90
77723;BME280;67811;42.656;23.394;2023-03-02T02:28:20;95332.88;;;3.76;86.70
77723;BME280;67811;42.656;23.394;2023-03-02T02:30:56;95327.38;;;3.69;86.74
77723;BME280;67811;42.656;23.394;2023-03-02T02:33:27;95321.13;;;3.61;87.44
77723;BME280;67811;42.656;23.394;2023-03-02T02:36:02;95318.94;;;3.66;87.07
77723;BME280;67811;42.656;23.394;2023-03-02T02:38:35;95319.91;;;3.65;86.88
77723;BME280;67811;42.656;23.394;2023-03-02T02:41:11;95318.78;;;3.67;86.83
77723;BME280;67811;42.656;23.394;2023-03-02T02:43:49;95319.22;;;3.73;86.74
77723;BME280;67811;42.656;23.394;2023-03-02T02:46:20;95321.41;;;3.67;86.42
77723;BME280;67811;42.656;23.394;2023-03-02T02:48:51;95320.03;;;3.73;86.35
77723;BME280;67811;42.656;23.394;2023-03-02T02:51:25;95321.72;;;3.74;86.28
77723;BME280;67811;42.656;23.394;2023-03-02T02:53:57;95320.19;;;3.72;86.36
77723;BME280;67811;42.656;23.394;2023-03-02T02:56:30;95323.91;;;3.69;86.32
77723;BME280;67811;42.656;23.394;2023-03-02T02:59:06;95315.22;;;3.68;85.88
77723;BME280;67811;42.656;23.394;2023-03-02T03:01:39;95316.47;;;3.64;86.07
77723;BME280;67811;42.656;23.394;2023-03-02T03:04:12;95308.59;;;3.64;85.95
77723;BME280;67811;42.656;23.394;2023-03-02T03:06:49;95306.25;;;3.61;86.19
77723;BME280;67811;42.656;23.394;2023-03-02T03:09:21;95309.16;;;3.58;86.33
77723;BME280;67811;42.656;23.394;2023-03-02T03:11:54;95305.00;;;3.56;86.29
77723;BME280;67811;42.656;23.394;2023-03-02T03:14:29;95296.72;;;3.60;86.61
77723;BME280;67811;42.656;23.394;2023-03-02T03:17:02;95297.84;;;3.58;86.46
77723;BME280;67811;42.656;23.394;2023-03-02T03:19:33;95298.94;;;3.55;86.48
77723;BME280;67811;42.656;23.394;2023-03-02T03:22:04;95305.81;;;3.56;86.66
77723;BME280;67811;42.656;23.394;2023-03-02T03:24:34;95302.25;;;3.57;86.66
77723;BME280;67811;42.656;23.394;2023-03-02T03:27:06;95300.47;;;3.58;86.87
77723;BME280;67811;42.656;23.394;2023-03-02T03:29:40;95305.28;;;3.62;86.67
77723;BME280;67811;42.656;23.394;2023-03-02T03:32:10;95305.00;;;3.65;86.63
77723;BME280;67811;42.656;23.394;2023-03-02T03:34:41;95305.28;;;3.62;86.50
77723;BME280;67811;42.656;23.394;2023-03-02T03:37:14;95308.06;;;3.70;86.31
77723;BME280;67811;42.656;23.394;2023-03-02T03:39:46;95312.72;;;3.67;86.59
77723;BME280;67811;42.656;23.394;2023-03-02T03:42:16;95313.72;;;3.76;86.18
77723;BME280;67811;42.656;23.394;2023-03-02T03:44:48;95309.69;;;3.72;85.95
77723;BME280;67811;42.656;23.394;2023-03-02T03:47:19;95313.84;;;3.74;85.54
77723;BME280;67811;42.656;23.394;2023-03-02T03:49:49;95313.28;;;3.70;85.94
77723;BME280;67811;42.656;23.394;2023-03-02T03:52:20;95308.06;;;3.70;85.82
77723;BME280;67811;42.656;23.394;2023-03-02T03:54:51;95308.06;;;3.70;85.83
77723;BME280;67811;42.656;23.394;2023-03-02T03:57:21;95306.66;;;3.66;86.31
77723;BME280;67811;42.656;23.394;2023-03-02T03:59:54;95306.13;;;3.63;86.50
77723;BME280;67811;42.656;23.394;2023-03-02T04:02:25;95307.75;;;3.54;86.73
77723;BME280;67811;42.656;23.394;2023-03-02T04:04:55;95306.94;;;3.54;87.36
77723;BME280;67811;42.656;23.394;2023-03-02T04:07:26;95308.16;;;3.50;87.66
77723;BME280;67811;42.656;23.394;2023-03-02T04:09:56;95302.78;;;3.51;87.31
77723;BME280;67811;42.656;23.394;2023-03-02T04:12:27;95300.03;;;3.53;87.40
77723;BME280;67811;42.656;23.394;2023-03-02T04:14:59;95312.75;;;3.57;87.50
77723;BME280;67811;42.656;23.394;2023-03-02T04:17:30;95307.75;;;3.54;87.46
77723;BME280;67811;42.656;23.394;2023-03-02T04:20:00;95309.25;;;3.57;87.43
77723;BME280;67811;42.656;23.394;2023-03-02T04:22:31;95303.19;;;3.56;87.66
77723;BME280;67811;42.656;23.394;2023-03-02T04:25:02;95300.19;;;3.61;87.21
77723;BME280;67811;42.656;23.394;2023-03-02T04:27:32;95299.22;;;3.62;87.02
77723;BME280;67811;42.656;23.394;2023-03-02T04:30:07;95303.09;;;3.58;87.44
77723;BME280;67811;42.656;23.394;2023-03-02T04:32:37;95291.63;;;3.59;87.22
77723;BME280;67811;42.656;23.394;2023-03-02T04:35:09;95303.09;;;3.58;86.86
77723;BME280;67811;42.656;23.394;2023-03-02T04:37:40;95295.34;;;3.56;86.77
77723;BME280;67811;42.656;23.394;2023-03-02T04:40:12;95305.81;;;3.56;86.90
77723;BME280;67811;42.656;23.394;2023-03-02T04:42:43;95308.03;;;3.51;86.70
77723;BME280;67811;42.656;23.394;2023-03-02T04:45:15;95308.31;;;3.48;87.01
77723;BME280;67811;42.656;23.394;2023-03-02T04:47:46;95318.94;;;3.47;87.69
77723;BME280;67811;42.656;23.394;2023-03-02T04:50:16;95308.03;;;3.41;88.01
77723;BME280;67811;42.656;23.394;2023-03-02T04:52:47;95319.19;;;3.43;88.57
77723;BME280;67811;42.656;23.394;2023-03-02T04:55:20;95313.81;;;3.55;87.93
77723;BME280;67811;42.656;23.394;2023-03-02T04:57:51;95316.03;;;3.59;88.54
77723;BME280;67811;42.656;23.394;2023-03-02T05:00:23;95314.09;;;3.61;88.22
77723;BME280;67811;42.656;23.394;2023-03-02T05:02:54;95315.75;;;3.62;87.49
77723;BME280;67811;42.656;23.394;2023-03-02T05:05:25;95313.84;;;3.64;86.86
77723;BME280;67811;42.656;23.394;2023-03-02T05:07:57;95310.50;;;3.62;87.09
77723;BME280;67811;42.656;23.394;2023-03-02T05:10:28;95311.63;;;3.60;87.60
77723;BME280;67811;42.656;23.394;2023-03-02T05:12:58;95306.13;;;3.63;87.97
77723;BME280;67811;42.656;23.394;2023-03-02T05:15:32;95319.50;;;3.60;88.63
77723;BME280;67811;42.656;23.394;2023-03-02T05:18:05;95312.47;;;3.70;87.05
77723;BME280;67811;42.656;23.394;2023-03-02T05:20:36;95319.50;;;3.69;86.95
77723;BME280;67811;42.656;23.394;2023-03-02T05:23:08;95325.72;;;3.68;86.66
77723;BME280;67811;42.656;23.394;2023-03-02T05:25:39;95327.22;;;3.71;86.91
77723;BME280;67811;42.656;23.394;2023-03-02T05:28:10;95330.97;;;3.68;86.64
77723;BME280;67811;42.656;23.394;2023-03-02T05:30:42;95324.75;;;3.69;86.96
77723;BME280;67811;42.656;23.394;2023-03-02T05:33:12;95331.38;;;3.74;86.53
77723;BME280;67811;42.656;23.394;2023-03-02T05:35:43;95334.13;;;3.72;86.96
77723;BME280;67811;42.656;23.394;2023-03-02T05:38:14;95333.56;;;3.68;86.19
77723;BME280;67811;42.656;23.394;2023-03-02T05:40:45;95330.66;;;3.72;86.45
77723;BME280;67811;42.656;23.394;2023-03-02T05:43:19;95333.13;;;3.73;85.77
77723;BME280;67811;42.656;23.394;2023-03-02T05:45:51;95330.94;;;3.78;86.21
77723;BME280;67811;42.656;23.394;2023-03-02T05:48:22;95336.06;;;3.80;85.47
77723;BME280;67811;42.656;23.394;2023-03-02T05:50:52;95334.41;;;3.88;85.74
77723;BME280;67811;42.656;23.394;2023-03-02T05:53:23;95340.34;;;3.90;84.69
77723;BME280;67811;42.656;23.394;2023-03-02T05:55:54;95335.63;;;3.94;84.84
77723;BME280;67811;42.656;23.394;2023-03-02T05:58:25;95347.09;;;4.03;84.76
77723;BME280;67811;42.656;23.394;2023-03-02T06:00:57;95342.69;;;4.03;84.26
77723;BME280;67811;42.656;23.394;2023-03-02T06:03:27;95342.94;;;4.00;84.54
77723;BME280;67811;42.656;23.394;2023-03-02T06:05:58;95344.19;;;4.06;84.40
77723;BME280;67811;42.656;23.394;2023-03-02T06:08:28;95347.78;;;4.05;84.18
77723;BME280;67811;42.656;23.394;2023-03-02T06:10:59;95347.09;;;4.12;84.11
77723;BME280;67811;42.656;23.394;2023-03-02T06:13:29;95357.72;;;4.20;84.02
77723;BME280;67811;42.656;23.394;2023-03-02T06:16:02;95351.38;;;4.13;84.29
77723;BME280;67811;42.656;23.394;2023-03-02T06:18:32;95359.09;;;4.15;83.45
77723;BME280;67811;42.656;23.394;2023-03-02T06:21:03;95356.91;;;4.20;83.75
77723;BME280;67811;42.656;23.394;2023-03-02T06:23:34;95355.50;;;4.26;83.35
77723;BME280;67811;42.656;23.394;2023-03-02T06:26:09;95358.13;;;4.35;83.18
77723;BME280;67811;42.656;23.394;2023-03-02T06:28:39;95359.06;;;4.44;82.75
77723;BME280;67811;42.656;23.394;2023-03-02T06:31:11;95368.47;;;4.37;82.38
77723;BME280;67811;42.656;23.394;2023-03-02T06:33:42;95374.53;;;4.37;82.64
77723;BME280;67811;42.656;23.394;2023-03-02T06:36:12;95370.69;;;4.32;82.70
77723;BME280;67811;42.656;23.394;2023-03-02T06:38:43;95373.31;;;4.32;82.25
77723;BME280;67811;42.656;23.394;2023-03-02T06:41:14;95371.22;;;4.45;82.02
77723;BME280;67811;42.656;23.394;2023-03-02T06:43:48;95367.06;;;4.52;81.84
77723;BME280;67811;42.656;23.394;2023-03-02T06:46:20;95361.53;;;4.65;80.99
77723;BME280;67811;42.656;23.394;2023-03-02T06:48:50;95363.72;;;4.69;81.09
77723;BME280;67811;42.656;23.394;2023-03-02T06:51:21;95376.34;;;4.46;81.75
77723;BME280;67811;42.656;23.394;2023-03-02T06:53:51;95367.91;;;4.43;82.00
77723;BME280;67811;42.656;23.394;2023-03-02T06:56:22;95372.47;;;4.51;81.44
77723;BME280;67811;42.656;23.394;2023-03-02T06:58:52;95374.69;;;4.45;81.89
77723;BME280;67811;42.656;23.394;2023-03-02T07:01:24;95379.94;;;4.45;81.94
77723;BME280;67811;42.656;23.394;2023-03-02T07:03:55;95373.16;;;4.43;81.55
77723;BME280;67811;42.656;23.394;2023-03-02T07:06:26;95367.09;;;4.33;82.27
77723;BME280;67811;42.656;23.394;2023-03-02T07:08:56;95365.28;;;4.53;81.68
77723;BME280;67811;42.656;23.394;2023-03-02T07:11:27;95374.53;;;4.57;80.66
77723;BME280;67811;42.656;23.394;2023-03-02T07:13:58;95368.84;;;4.61;81.05
77723;BME280;67811;42.656;23.394;2023-03-02T07:16:32;95369.66;;;4.71;80.06
77723;BME280;67811;42.656;23.394;2023-03-02T07:19:03;95365.09;;;4.73;80.56
77723;BME280;67811;42.656;23.394;2023-03-02T07:21:33;95372.81;;;4.75;80.63
77723;BME280;67811;42.656;23.394;2023-03-02T07:24:05;95376.44;;;4.64;80.51
77723;BME280;67811;42.656;23.394;2023-03-02T07:26:35;95361.66;;;4.73;81.23
77723;BME280;67811;42.656;23.394;2023-03-02T07:29:06;95368.41;;;4.66;80.94
77723;BME280;67811;42.656;23.394;2023-03-02T07:31:38;95370.63;;;4.70;80.80
77723;BME280;67811;42.656;23.394;2023-03-02T07:34:08;95374.13;;;4.52;80.65
77723;BME280;67811;42.656;23.394;2023-03-02T07:36:39;95367.31;;;4.68;80.56
77723;BME280;67811;42.656;23.394;2023-03-02T07:39:09;95374.06;;;4.71;80.23
77723;BME280;67811;42.656;23.394;2023-03-02T07:41:40;95360.84;;;4.72;79.95
77723;BME280;67811;42.656;23.394;2023-03-02T07:44:11;95360.09;;;4.80;79.93
77723;BME280;67811;42.656;23.394;2023-03-02T07:46:43;95377.25;;;4.74;79.54
77723;BME280;67811;42.656;23.394;2023-03-02T07:49:13;95374.50;;;4.66;80.06
77723;BME280;67811;42.656;23.394;2023-03-02T07:51:44;95370.94;;;4.58;80.21
77723;BME280;67811;42.656;23.394;2023-03-02T07:54:14;95385.03;;;4.57;80.60
77723;BME280;67811;42.656;23.394;2023-03-02T07:56:45;95370.38;;;4.54;80.62
77723;BME280;67811;42.656;23.394;2023-03-02T07:59:15;95358.81;;;4.47;80.73
77723;BME280;67811;42.656;23.394;2023-03-02T08:01:47;95364.97;;;4.56;81.06
77723;BME280;67811;42.656;23.394;2023-03-02T08:04:18;95369.56;;;4.54;80.62
77723;BME280;67811;42.656;23.394;2023-03-02T08:06:49;95360.44;;;4.58;80.77
77723;BME280;67811;42.656;23.394;2023-03-02T08:09:19;95370.69;;;4.51;80.69
77723;BME280;67811;42.656;23.394;2023-03-02T08:11:50;95369.41;;;4.55;80.65
77723;BME280;67811;42.656;23.394;2023-03-02T08:14:20;95362.25;;;4.57;81.14
77723;BME280;67811;42.656;23.394;2023-03-02T08:16:52;95365.13;;;4.64;81.79
77723;BME280;67811;42.656;23.394;2023-03-02T08:19:23;95357.97;;;4.46;82.86
77723;BME280;67811;42.656;23.394;2023-03-02T08:21:53;95363.91;;;4.48;83.52
77723;BME280;67811;42.656;23.394;2023-03-02T08:24:24;95360.19;;;4.32;84.13
77723;BME280;67811;42.656;23.394;2023-03-02T08:26:54;95353.81;;;4.44;85.99
77723;BME280;67811;42.656;23.394;2023-03-02T08:29:26;95358.53;;;4.40;84.18
77723;BME280;67811;42.656;23.394;2023-03-02T08:31:58;95356.47;;;4.34;84.57
77723;BME280;67811;42.656;23.394;2023-03-02T08:34:28;95356.19;;;4.37;85.58
77723;BME280;67811;42.656;23.394;2023-03-02T08:36:59;95362.41;;;4.36;84.80
77723;BME280;67811;42.656;23.394;2023-03-02T08:39:29;95360.88;;;4.43;85.36
77723;BME280;67811;42.656;23.394;2023-03-02T08:42:00;95356.28;;;4.65;86.93
77723;BME280;67811;42.656;23.394;2023-03-02T08:44:31;95345.59;;;4.76;86.74
77723;BME280;67811;42.656;23.394;2023-03-02T08:47:03;95347.25;;;4.77;85.49
77723;BME280;67811;42.656;23.394;2023-03-02T08:49:33;95353.47;;;4.76;85.32
77723;BME280;67811;42.656;23.394;2023-03-02T08:52:04;95357.09;;;4.75;84.45
77723;BME280;67811;42.656;23.394;2023-03-02T08:54:35;95356.09;;;4.86;84.55
77723;BME280;67811;42.656;23.394;2023-03-02T08:57:09;95357.75;;;4.77;82.98
77723;BME280;67811;42.656;23.394;2023-03-02T08:59:40;95348.22;;;4.76;83.05
77723;BME280;67811;42.656;23.394;2023-03-02T09:02:12;95347.63;;;4.92;83.77
77723;BME280;67811;42.656;23.394;2023-03-02T09:04:42;95350.63;;;5.07;82.69
77723;BME280;67811;42.656;23.394;2023-03-02T09:07:13;95346.78;;;5.01;80.70
77723;BME280;67811;42.656;23.394;2023-03-02T09:09:43;95341.47;;;5.11;82.08
77723;BME280;67811;42.656;23.394;2023-03-02T09:12:14;95345.88;;;5.10;82.93
77723;BME280;67811;42.656;23.394;2023-03-02T09:14:45;95351.22;;;5.00;81.12
77723;BME280;67811;42.656;23.394;2023-03-02T09:17:17;95341.31;;;4.75;81.21
77723;BME280;67811;42.656;23.394;2023-03-02T09:19:47;95345.19;;;4.81;83.15
77723;BME280;67811;42.656;23.394;2023-03-02T09:22:18;95350.16;;;4.84;82.60
77723;BME280;67811;42.656;23.394;2023-03-02T09:24:48;95338.50;;;4.96;83.24
77723;BME280;67811;42.656;23.394;2023-03-02T09:27:19;95333.53;;;4.93;82.18
77723;BME280;67811;42.656;23.394;2023-03-02T09:29:49;95340.47;;;4.84;82.13
77723;BME280;67811;42.656;23.394;2023-03-02T09:32:22;95352.47;;;4.96;82.68
77723;BME280;67811;42.656;23.394;2023-03-02T09:34:52;95353.84;;;4.91;82.86
77723;BME280;67811;42.656;23.394;2023-03-02T09:37:23;95338.69;;;4.85;83.47
77723;BME280;67811;42.656;23.394;2023-03-02T09:39:53;95338.69;;;4.85;84.65
77723;BME280;67811;42.656;23.394;2023-03-02T09:42:52;95342.53;;;4.90;83.73
77723;BME280;67811;42.656;23.394;2023-03-02T09:45:34;95339.75;;;4.92;83.98
77723;BME280;67811;42.656;23.394;2023-03-02T09:48:15;95348.78;;;4.80;83.29
77723;BME280;67811;42.656;23.394;2023-03-02T09:50:54;95348.25;;;4.66;84.29
77723;BME280;67811;42.656;23.394;2023-03-02T09:53:34;95337.06;;;4.64;83.84
77723;BME280;67811;42.656;23.394;2023-03-02T09:56:14;95334.13;;;4.77;83.90
77723;BME280;67811;42.656;23.394;2023-03-02T09:58:48;95337.97;;;4.83;83.79
77723;BME280;67811;42.656;23.394;2023-03-02T10:01:29;95341.25;;;4.94;82.73
77723;BME280;67811;42.656;23.394;2023-03-02T10:04:10;95315.25;;;5.01;82.77
77723;BME280;67811;42.656;23.394;2023-03-02T10:06:42;95331.03;;;5.01;82.18
77723;BME280;67811;42.656;23.394;2023-03-02T10:09:13;95325.63;;;5.02;81.21
77723;BME280;67811;42.656;23.394;2023-03-02T10:11:58;95331.72;;;4.93;80.58
77723;BME280;67811;42.656;23.394;2023-03-02T10:14:36;95335.16;;;4.94;80.80
77723;BME280;67811;42.656;23.394;2023-03-02T10:17:22;95329.00;;;5.22;81.38
77723;BME280;67811;42.656;23.394;2023-03-02T10:20:03;95330.28;;;5.36;79.73
77723;BME280;67811;42.656;23.394;2023-03-02T10:22:37;95333.66;;;5.28;80.50
77723;BME280;67811;42.656;23.394;2023-03-02T10:25:19;95327.31;;;5.21;79.47
77723;BME280;67811;42.656;23.394;2023-03-02T10:27:56;95334.28;;;5.40;79.55
77723;BME280;67811;42.656;23.394;2023-03-02T10:30:32;95322.94;;;5.40;79.49
77723;BME280;67811;42.656;23.394;2023-03-02T10:33:10;95328.63;;;5.35;78.42
77723;BME280;67811;42.656;23.394;2023-03-02T10:35:44;95327.59;;;5.28;78.04
77723;BME280;67811;42.656;23.394;2023-03-02T10:38:16;95320.13;;;5.23;79.57
77723;BME280;67811;42.656;23.394;2023-03-02T10:40:48;95313.66;;;5.18;79.30
77723;BME280;67811;42.656;23.394;2023-03-02T10:43:26;95312.44;;;5.12;79.77
77723;BME280;67811;42.656;23.394;2023-03-02T10:46:00;95312.41;;;5.22;79.55
77723;BME280;67811;42.656;23.394;2023-03-02T10:48:30;95295.50;;;5.24;79.38
77723;BME280;67811;42.656;23.394;2023-03-02T10:51:02;95309.63;;;5.23;78.93
77723;BME280;67811;42.656;23.394;2023-03-02T10:53:33;95303.00;;;5.19;79.12
77723;BME280;67811;42.656;23.394;2023-03-02T10:56:04;95301.00;;;5.31;79.31
77723;BME280;67811;42.656;23.394;2023-03-02T10:58:35;95294.94;;;5.48;78.26
77723;BME280;67811;42.656;23.394;2023-03-02T11:01:14;95296.69;;;5.58;77.49
77723;BME280;67811;42.656;23.394;2023-03-02T11:03:54;95283.97;;;5.53;76.37
77723;BME280;67811;42.656;23.394;2023-03-02T11:06:27;95295.25;;;5.63;76.74
77723;BME280;67811;42.656;23.394;2023-03-02T11:09:01;95279.09;;;5.58;75.62
77723;BME280;67811;42.656;23.394;2023-03-02T11:11:31;95290.59;;;5.57;75.64
77723;BME280;67811;42.656;23.394;2023-03-02T11:14:13;95306.38;;;5.57;76.06
77723;BME280;67811;42.656;23.394;2023-03-02T11:16:43;95288.56;;;5.51;76.17
77723;BME280;67811;42.656;23.394;2023-03-02T11:19:16;95279.78;;;5.60;75.71
77723;BME280;67811;42.656;23.394;2023-03-02T11:21:55;95277.25;;;5.68;75.88
77723;BME280;67811;42.656;23.394;2023-03-02T11:24:32;95270.47;;;5.84;74.93
77723;BME280;67811;42.656;23.394;2023-03-02T11:27:07;95274.09;;;5.82;75.77
77723;BME280;67811;42.656;23.394;2023-03-02T11:29:44;95275.22;;;5.80;75.16
77723;BME280;67811;42.656;23.394;2023-03-02T11:32:38;95264.63;;;5.90;75.15
77723;BME280;67811;42.656;23.394;2023-03-02T11:35:13;95263.44;;;6.02;74.20
77723;BME280;67811;42.656;23.394;2023-03-02T11:37:49;95270.13;;;5.96;73.92
77723;BME280;67811;42.656;23.394;2023-03-02T11:40:23;95271.59;;;5.81;74.27
77723;BME280;67811;42.656;23.394;2023-03-02T11:42:57;95260.47;;;5.87;74.02
77723;BME280;67811;42.656;23.394;2023-03-02T11:45:30;95256.47;;;6.19;72.86
77723;BME280;67811;42.656;23.394;2023-03-02T11:48:05;95263.13;;;6.49;71.78
77723;BME280;67811;42.656;23.394;2023-03-02T11:50:45;95261.59;;;6.46;71.75
77723;BME280;67811;42.656;23.394;2023-03-02T11:53:24;95272.63;;;6.24;71.23
77723;BME280;67811;42.656;23.394;2023-03-02T11:55:57;95257.75;;;6.32;72.11
77723;BME280;67811;42.656;23.394;2023-03-02T11:58:28;95272.63;;;6.24;72.09
77723;BME280;67811;42.656;23.394;2023-03-02T12:01:00;95260.38;;;6.32;72.29
77723;BME280;67811;42.656;23.394;2023-03-02T12:03:39;95256.78;;;6.42;72.23
77723;BME280;67811;42.656;23.394;2023-03-02T12:06:26;95265.31;;;6.36;71.82
77723;BME280;67811;42.656;23.394;2023-03-02T12:09:10;95263.72;;;6.43;71.35
77723;BME280;67811;42.656;23.394;2023-03-02T12:11:44;95262.19;;;6.32;72.28
77723;BME280;67811;42.656;23.394;2023-03-02T12:14:24;95259.03;;;6.28;72.31
77723;BME280;67811;42.656;23.394;2023-03-02T12:17:20;95259.03;;;6.28;71.84
77723;BME280;67811;42.656;23.394;2023-03-02T12:19:53;95254.66;;;6.19;72.25
77723;BME280;67811;42.656;23.394;2023-03-02T12:22:26;95263.84;;;6.15;72.52
77723;BME280;67811;42.656;23.394;2023-03-02T12:25:04;95263.78;;;6.07;72.31
77723;BME280;67811;42.656;23.394;2023-03-02T12:27:37;95262.44;;;6.03;72.44
77723;BME280;67811;42.656;23.394;2023-03-02T12:30:19;95255.97;;;5.97;71.23
77723;BME280;67811;42.656;23.394;2023-03-02T12:33:17;95243.38;;;6.01;71.98
77723;BME280;67811;42.656;23.394;2023-03-02T12:35:49;95248.78;;;5.99;72.23
77723;BME280;67811;42.656;23.394;2023-03-02T12:38:28;95250.66;;;5.89;72.04
77723;BME280;67811;42.656;23.394;2023-03-02T12:41:23;95246.91;;;5.92;72.01
77723;BME280;67811;42.656;23.394;2023-03-02T12:44:15;95257.00;;;5.87;72.10
77723;BME280;67811;42.656;23.394;2023-03-02T12:46:50;95272.78;;;5.87;72.32
77723;BME280;67811;42.656;23.394;2023-03-02T12:49:36;95258.31;;;5.82;72.36
77723;BME280;67811;42.656;23.394;2023-03-02T12:52:25;95261.63;;;5.85;72.63
77723;BME280;67811;42.656;23.394;2023-03-02T12:55:02;95266.00;;;5.94;72.97
77723;BME280;67811;42.656;23.394;2023-03-02T12:57:37;95258.78;;;5.96;73.87
77723;BME280;67811;42.656;23.394;2023-03-02T13:00:14;95245.47;;;5.97;75.88
77723;BME280;67811;42.656;23.394;2023-03-02T13:02:47;95246.44;;;5.96;75.64
77723;BME280;67811;42.656;23.394;2023-03-02T13:05:20;95247.09;;;5.80;75.07
77723;BME280;67811;42.656;23.394;2023-03-02T13:07:56;95247.72;;;5.74;75.31
77723;BME280;67811;42.656;23.394;2023-03-02T13:10:30;95243.50;;;5.81;77.66
77723;BME280;67811;42.656;23.394;2023-03-02T13:13:14;95244.97;;;5.94;76.68
77723;BME280;67811;42.656;23.394;2023-03-02T13:15:53;95244.34;;;6.00;76.38
77723;BME280;67811;42.656;23.394;2023-03-02T13:18:26;95243.56;;;5.90;73.98
77723;BME280;67811;42.656;23.394;2023-03-02T13:20:57;95233.22;;;5.88;75.15
77723;BME280;67811;42.656;23.394;2023-03-02T13:23:31;95228.91;;;5.87;75.48
77723;BME280;67811;42.656;23.394;2023-03-02T13:26:04;95226.91;;;5.81;74.96
77723;BME280;67811;42.656;23.394;2023-03-02T13:28:37;95225.63;;;5.85;74.48
77723;BME280;67811;42.656;23.394;2023-03-02T13:31:17;95217.06;;;5.83;74.57